Abercrombie, North Dakota
Current Conditions -  °F | °C
As of 8:15 AM on Monday 24 Nov 2014 (Local Time) from KBWP Reporting Station
Overcast Overcast  
Wind Chill: -7°   Ceiling: 2100
Heat Index: 12°   Visibility: 5mi
Dew Point:   Wind: 23mph
Humidity: 79%   Direction: 340°NNW
Pressure: 29.65"   Gusts: 31mph
Location:  46.45°N, 96.73°W
Report Text: KBWP 241415Z AUTO 34020G27KT 5SM SCT012 OVC021 M11/M14 A2965 RMK AO1
Loading
Personal Weather Stations






























Interactive Weather Map New forecast layout! Learn more

10-Day Weather Forecast

Advertisements
Track Severe Weather on mobile